createdAt,value
2023-04-14T00:00:18.654Z,7.70
2023-04-14T00:02:47.796Z,7.70
2023-04-14T00:05:17.970Z,7.60
2023-04-14T00:07:45.322Z,7.70
2023-04-14T00:10:13.159Z,7.60
2023-04-14T00:12:44.388Z,7.60
2023-04-14T00:15:11.676Z,7.60
2023-04-14T00:17:39.586Z,7.60
2023-04-14T00:20:13.887Z,7.60
2023-04-14T00:22:40.831Z,7.50
2023-04-14T00:25:08.177Z,7.50
2023-04-14T00:27:38.143Z,7.50
2023-04-14T00:30:06.212Z,7.50
2023-04-14T00:32:34.741Z,7.40
2023-04-14T00:35:05.802Z,7.50
2023-04-14T00:37:33.776Z,7.40
2023-04-14T00:40:02.760Z,7.40
2023-04-14T00:42:32.751Z,7.40
2023-04-14T00:44:59.699Z,7.40
2023-04-14T00:47:28.017Z,7.40
2023-04-14T00:49:54.980Z,7.30
2023-04-14T00:52:23.873Z,7.40
2023-04-14T00:54:53.130Z,7.30
2023-04-14T00:57:22.363Z,7.40
2023-04-14T00:59:49.647Z,7.40
2023-04-14T01:02:17.882Z,7.50
2023-04-14T01:04:53.377Z,7.40
2023-04-14T01:07:23.367Z,7.30
2023-04-14T01:09:52.002Z,7.30
2023-04-14T01:12:38.897Z,7.40
2023-04-14T01:15:30.453Z,7.40
2023-04-14T01:18:22.094Z,7.40
2023-04-14T01:20:56.680Z,7.40
2023-04-14T01:23:30.324Z,7.30
2023-04-14T01:26:14.757Z,7.30
2023-04-14T01:29:06.755Z,7.30
2023-04-14T01:32:05.851Z,7.30
2023-04-14T01:34:46.851Z,7.30
2023-04-14T01:37:32.052Z,7.40
2023-04-14T01:40:12.702Z,7.40
2023-04-14T01:42:46.491Z,7.40
2023-04-14T01:45:22.981Z,7.30
2023-04-14T01:47:51.486Z,7.30
2023-04-14T01:50:21.335Z,7.30
2023-04-14T01:52:54.241Z,7.30
2023-04-14T01:55:27.566Z,7.20
2023-04-14T01:57:58.269Z,7.30
2023-04-14T02:00:27.760Z,7.30
2023-04-14T02:02:55.817Z,7.20
2023-04-14T02:05:25.341Z,7.10
2023-04-14T02:07:55.726Z,7.10
2023-04-14T02:10:24.954Z,7.10
2023-04-14T02:12:57.094Z,7.10
2023-04-14T02:15:26.222Z,7.10
2023-04-14T02:17:55.802Z,7.20
2023-04-14T02:20:26.364Z,7.30
2023-04-14T02:22:54.499Z,7.40
2023-04-14T02:25:26.136Z,7.30
2023-04-14T02:28:00.534Z,7.10
2023-04-14T02:30:33.849Z,7.00
2023-04-14T02:33:11.234Z,6.90
2023-04-14T02:35:44.723Z,6.80
2023-04-14T02:38:27.094Z,6.80
2023-04-14T02:40:54.352Z,6.70
2023-04-14T02:43:30.959Z,6.70
2023-04-14T02:46:04.436Z,6.80
2023-04-14T02:48:34.769Z,6.80
2023-04-14T02:51:05.945Z,6.70
2023-04-14T02:53:35.415Z,6.60
2023-04-14T02:56:10.732Z,6.60
2023-04-14T02:58:43.541Z,6.50
2023-04-14T03:01:11.841Z,6.30
2023-04-14T03:03:40.450Z,6.30
2023-04-14T03:06:15.751Z,6.20
2023-04-14T03:08:45.710Z,6.20
2023-04-14T03:11:15.504Z,6.20
2023-04-14T03:13:46.055Z,6.30
2023-04-14T03:16:20.348Z,6.30
2023-04-14T03:18:50.495Z,6.30
2023-04-14T03:21:21.002Z,6.30
2023-04-14T03:23:51.353Z,6.30
2023-04-14T03:26:23.688Z,6.40
2023-04-14T03:28:54.953Z,6.40
2023-04-14T03:31:30.410Z,6.40
2023-04-14T03:34:11.474Z,6.50
2023-04-14T03:36:51.231Z,6.50
2023-04-14T03:39:20.267Z,6.50
2023-04-14T03:41:51.779Z,6.50
2023-04-14T03:44:21.199Z,6.50
2023-04-14T03:46:55.038Z,6.50
2023-04-14T03:49:25.923Z,6.50
2023-04-14T03:51:58.668Z,6.50
2023-04-14T03:54:30.580Z,6.40
2023-04-14T03:57:00.855Z,6.40
2023-04-14T03:59:31.222Z,6.40
2023-04-14T04:02:03.228Z,6.40
2023-04-14T04:04:31.405Z,6.50
2023-04-14T04:07:00.837Z,6.50
2023-04-14T04:09:29.831Z,6.50
2023-04-14T04:12:01.605Z,6.70
2023-04-14T04:14:32.782Z,6.40
2023-04-14T04:17:03.706Z,6.50
2023-04-14T04:19:36.361Z,6.50
2023-04-14T04:22:06.462Z,6.40
2023-04-14T04:24:39.360Z,6.40
2023-04-14T04:27:20.333Z,6.40
2023-04-14T04:29:53.429Z,6.40
2023-04-14T04:32:22.197Z,6.40
2023-04-14T04:34:51.142Z,6.30
2023-04-14T04:37:21.642Z,6.30
2023-04-14T04:39:49.730Z,6.20
2023-04-14T04:42:19.169Z,6.20
2023-04-14T04:44:47.342Z,6.20
2023-04-14T04:47:15.007Z,6.10
2023-04-14T04:49:42.153Z,6.20
2023-04-14T04:52:09.133Z,6.20
2023-04-14T04:54:42.272Z,6.30
2023-04-14T04:57:09.171Z,6.30
2023-04-14T04:59:38.033Z,6.30
2023-04-14T05:02:05.325Z,6.30
2023-04-14T05:04:32.715Z,6.20
2023-04-14T05:06:59.664Z,6.20
2023-04-14T05:09:27.471Z,6.10
2023-04-14T05:11:57.540Z,6.10
2023-04-14T05:14:27.379Z,6.20
2023-04-14T05:16:54.694Z,6.10
2023-04-14T05:19:22.789Z,6.00
2023-04-14T05:21:51.790Z,6.00
2023-04-14T05:24:18.601Z,6.10
2023-04-14T05:27:01.517Z,6.10
2023-04-14T05:29:35.164Z,6.20
2023-04-14T05:32:02.998Z,6.20
2023-04-14T05:34:30.915Z,6.20
2023-04-14T05:36:57.800Z,6.20
2023-04-14T05:39:24.654Z,6.20
2023-04-14T05:41:52.598Z,6.20
2023-04-14T05:44:23.846Z,6.30
2023-04-14T05:46:52.929Z,6.50
2023-04-14T05:49:21.015Z,6.60
2023-04-14T05:51:54.332Z,6.60
2023-04-14T05:54:21.272Z,6.80
2023-04-14T05:56:49.421Z,6.80
2023-04-14T05:59:17.340Z,6.90
2023-04-14T06:01:45.695Z,6.90
2023-04-14T06:04:15.805Z,7.00
2023-04-14T06:06:43.807Z,7.00
2023-04-14T06:09:12.720Z,7.10
2023-04-14T06:11:42.768Z,7.20
2023-04-14T06:14:10.101Z,7.40
2023-04-14T06:16:44.870Z,7.50
2023-04-14T06:19:15.757Z,7.50
2023-04-14T06:21:48.102Z,7.60
2023-04-14T06:24:16.430Z,7.60
2023-04-14T06:26:55.920Z,7.70
2023-04-14T06:29:23.039Z,7.70
2023-04-14T06:31:52.234Z,7.70
2023-04-14T06:34:19.148Z,7.60
2023-04-14T06:36:46.477Z,7.60
2023-04-14T06:39:14.305Z,7.60
2023-04-14T06:41:41.759Z,7.60
2023-04-14T06:44:10.797Z,7.60
2023-04-14T06:46:37.896Z,7.60
2023-04-14T06:49:06.500Z,7.60
2023-04-14T06:51:34.131Z,7.70
2023-04-14T06:54:02.285Z,7.80
2023-04-14T06:56:29.252Z,7.90
2023-04-14T06:58:56.260Z,8.10
2023-04-14T07:01:23.237Z,8.20
2023-04-14T07:03:50.238Z,8.30
2023-04-14T07:06:18.231Z,8.30
2023-04-14T07:08:46.480Z,8.30
2023-04-14T07:11:14.461Z,8.30
2023-04-14T07:13:42.018Z,8.20
2023-04-14T07:16:09.298Z,8.30
2023-04-14T07:18:36.541Z,8.50
2023-04-14T07:21:03.485Z,8.40
2023-04-14T07:23:30.772Z,8.50
2023-04-14T07:25:59.995Z,8.60
2023-04-14T07:28:28.221Z,8.60
2023-04-14T07:30:55.427Z,8.80
2023-04-14T07:33:22.732Z,8.80
2023-04-14T07:36:02.208Z,8.90
2023-04-14T07:38:33.112Z,9.00
2023-04-14T07:41:04.625Z,9.10
2023-04-14T07:43:36.976Z,9.10
2023-04-14T07:46:06.680Z,9.20
2023-04-14T07:48:35.738Z,9.40
2023-04-14T07:51:05.323Z,9.60
2023-04-14T07:53:33.592Z,9.70
2023-04-14T07:56:02.660Z,9.90
2023-04-14T07:58:30.009Z,10.00
2023-04-14T08:09:21.534Z,10.30
2023-04-14T08:11:54.678Z,10.50
2023-04-14T08:14:25.031Z,10.50
2023-04-14T08:16:58.181Z,10.40
2023-04-14T08:19:25.281Z,10.50
2023-04-14T08:21:52.397Z,10.30
2023-04-14T08:24:19.456Z,10.30
2023-04-14T08:26:46.706Z,10.20
2023-04-14T08:29:14.789Z,10.30
2023-04-14T08:31:42.906Z,10.30
2023-04-14T08:34:13.651Z,10.30
2023-04-14T08:36:49.701Z,10.40
2023-04-14T08:39:21.092Z,10.60
2023-04-14T08:41:53.319Z,10.80
2023-04-14T08:44:34.170Z,10.90
2023-04-14T08:47:02.428Z,11.00
2023-04-14T08:49:36.316Z,11.00
2023-04-14T08:52:12.910Z,11.10
2023-04-14T08:54:42.752Z,11.50
2023-04-14T08:57:16.312Z,11.50
2023-04-14T08:59:47.923Z,11.80
2023-04-14T09:05:46.286Z,12.00
2023-04-14T09:08:14.097Z,12.20
2023-04-14T09:10:44.754Z,12.10
2023-04-14T09:13:15.668Z,11.80
2023-04-14T09:15:44.376Z,11.90
2023-04-14T09:18:15.284Z,11.90
2023-04-14T09:20:43.258Z,12.00
2023-04-14T09:23:11.160Z,12.10
2023-04-14T09:25:40.395Z,11.90
2023-04-14T09:28:09.151Z,11.80
2023-04-14T09:30:39.501Z,11.80
2023-04-14T09:35:50.148Z,11.90
2023-04-14T09:38:41.631Z,11.90
2023-04-14T09:41:17.513Z,12.10
2023-04-14T09:43:46.307Z,12.10
2023-04-14T09:46:14.876Z,12.40
2023-04-14T09:48:52.971Z,12.60
2023-04-14T09:51:28.866Z,12.50
2023-04-14T09:54:02.505Z,12.40
2023-04-14T09:56:34.010Z,12.30
2023-04-14T09:59:03.580Z,12.20
2023-04-14T10:01:34.597Z,12.30
2023-04-14T10:04:02.615Z,12.30
2023-04-14T10:06:31.691Z,12.20
2023-04-14T10:09:01.489Z,12.20
2023-04-14T10:11:35.676Z,12.40
2023-04-14T10:18:26.738Z,12.70
2023-04-14T10:21:02.345Z,12.80
2023-04-14T10:23:39.313Z,12.90
2023-04-14T10:26:08.422Z,13.10
2023-04-14T10:28:40.058Z,13.20
2023-04-14T10:31:16.288Z,13.20
2023-04-14T10:33:44.414Z,13.00
2023-04-14T10:36:22.995Z,12.90
2023-04-14T10:39:28.502Z,13.00
2023-04-14T10:41:56.848Z,13.10
2023-04-14T10:44:31.726Z,13.00
2023-04-14T10:47:05.942Z,13.00
2023-04-14T10:49:57.347Z,13.00
2023-04-14T10:52:32.579Z,13.20
2023-04-14T10:55:12.638Z,13.20
2023-04-14T10:57:43.373Z,13.10
2023-04-14T11:00:19.870Z,13.30
2023-04-14T11:03:18.255Z,13.40
2023-04-14T11:05:52.211Z,13.30
2023-04-14T11:08:53.152Z,13.50
2023-04-14T11:11:31.142Z,13.60
2023-04-14T11:17:09.934Z,13.60
2023-04-14T11:19:39.528Z,13.60
2023-04-14T11:22:15.731Z,14.00
2023-04-14T11:24:51.909Z,14.20
2023-04-14T11:33:40.524Z,14.40
2023-04-14T11:41:35.965Z,13.70
2023-04-14T11:44:05.125Z,13.70
2023-04-14T11:46:35.383Z,13.70
2023-04-14T11:49:05.184Z,13.90
2023-04-14T11:51:34.079Z,14.20
2023-04-14T11:54:10.392Z,14.30
2023-04-14T11:56:41.938Z,14.30
2023-04-14T11:59:10.385Z,14.30
2023-04-14T12:01:40.414Z,14.10
2023-04-14T12:04:13.174Z,14.10
2023-04-14T12:06:43.269Z,14.30
2023-04-14T12:09:15.044Z,14.80
2023-04-14T12:11:44.854Z,14.80
2023-04-14T12:17:08.368Z,15.30
2023-04-14T12:22:31.747Z,15.20
2023-04-14T12:25:14.147Z,14.70
2023-04-14T12:30:52.708Z,16.10
2023-04-14T12:53:30.582Z,14.80
2023-04-14T12:59:03.376Z,15.20
2023-04-14T13:17:02.882Z,15.40
2023-04-14T13:19:37.018Z,15.10
2023-04-14T13:22:23.196Z,14.70
2023-04-14T13:37:02.997Z,15.10
2023-04-14T13:39:32.958Z,15.30
2023-04-14T13:44:49.627Z,14.90
2023-04-14T13:47:25.321Z,14.70
2023-04-14T13:49:53.241Z,14.30
2023-04-14T13:52:21.565Z,14.00
2023-04-14T13:54:49.990Z,13.80
2023-04-14T13:57:23.135Z,13.70
2023-04-14T13:59:52.617Z,13.50
2023-04-14T14:03:18.214Z,13.40
2023-04-14T14:05:56.379Z,13.50
2023-04-14T14:08:44.161Z,13.60
2023-04-14T14:15:51.140Z,13.40
2023-04-14T14:18:23.130Z,13.30
2023-04-14T14:20:55.244Z,13.30
2023-04-14T14:26:45.231Z,13.70
2023-04-14T14:29:20.356Z,14.10
2023-04-14T14:31:58.398Z,14.40
2023-04-14T14:46:14.536Z,14.40
2023-04-14T14:51:32.861Z,14.50
2023-04-14T15:05:09.315Z,15.20
2023-04-14T15:07:42.535Z,15.30
2023-04-14T15:10:16.028Z,15.10
2023-04-14T15:13:04.039Z,14.80
2023-04-14T15:15:59.741Z,14.90
2023-04-14T15:21:08.583Z,15.10
2023-04-14T15:23:43.270Z,15.10
2023-04-14T15:26:18.086Z,15.00
2023-04-14T15:29:01.342Z,14.80
2023-04-14T15:34:19.505Z,14.50
2023-04-14T15:36:50.258Z,14.50
2023-04-14T15:39:30.133Z,14.50
2023-04-14T15:42:06.552Z,14.50
2023-04-14T15:44:39.737Z,14.50
2023-04-14T15:47:11.618Z,14.40
2023-04-14T15:49:40.283Z,14.40
2023-04-14T15:52:08.441Z,14.30
2023-04-14T15:54:35.750Z,14.20
2023-04-14T15:57:15.518Z,14.20
2023-04-14T16:00:12.095Z,14.20
2023-04-14T16:02:48.209Z,14.30
2023-04-14T16:05:19.332Z,14.40
2023-04-14T16:07:53.333Z,14.50
2023-04-14T16:10:26.817Z,14.60
2023-04-14T16:18:07.869Z,14.50
2023-04-14T16:32:33.017Z,14.40
2023-04-14T16:35:38.304Z,14.60
2023-04-14T16:51:58.884Z,14.70
2023-04-14T16:59:12.261Z,14.70
2023-04-14T17:10:38.160Z,14.40
2023-04-14T17:13:09.036Z,14.20
2023-04-14T17:15:53.207Z,14.10
2023-04-14T17:32:31.413Z,14.00
2023-04-14T18:08:54.937Z,13.70
2023-04-14T18:11:34.597Z,13.70
2023-04-14T18:14:09.991Z,13.80
2023-04-14T18:16:38.893Z,13.90
2023-04-14T18:19:06.483Z,13.90
2023-04-14T18:22:02.505Z,13.90
2023-04-14T18:30:21.405Z,13.90
2023-04-14T18:32:57.354Z,13.80
2023-04-14T18:38:15.722Z,13.90
2023-04-14T18:43:41.751Z,13.80
2023-04-14T18:46:09.547Z,13.90
2023-04-14T18:48:38.336Z,14.00
2023-04-14T18:51:08.295Z,14.00
2023-04-14T18:53:40.279Z,14.10
2023-04-14T18:56:12.586Z,14.00
2023-04-14T18:58:46.789Z,13.90
2023-04-14T19:01:19.692Z,13.90
2023-04-14T19:03:53.424Z,13.80
2023-04-14T19:06:22.281Z,13.70
2023-04-14T19:09:08.692Z,13.70
2023-04-14T19:12:04.497Z,13.80
2023-04-14T19:18:08.106Z,13.80
2023-04-14T19:21:19.084Z,13.60
2023-04-14T19:26:53.662Z,13.50
2023-04-14T19:29:30.513Z,13.50
2023-04-14T19:32:05.865Z,13.50
2023-04-14T19:38:47.618Z,13.40
2023-04-14T19:46:16.732Z,13.50
2023-04-14T19:54:32.434Z,13.20
2023-04-14T19:57:03.459Z,13.20
2023-04-14T19:59:31.721Z,13.30
2023-04-14T20:02:01.206Z,13.20
2023-04-14T20:04:31.771Z,13.30
2023-04-14T20:07:01.590Z,13.20
2023-04-14T20:09:28.717Z,13.20
2023-04-14T20:11:58.751Z,13.20
2023-04-14T20:14:27.136Z,13.20
2023-04-14T20:16:57.992Z,13.30
2023-04-14T20:19:25.766Z,13.20
2023-04-14T20:21:56.081Z,13.10
2023-04-14T20:27:38.254Z,13.10
2023-04-14T20:30:08.409Z,13.00
2023-04-14T20:32:40.686Z,13.00
2023-04-14T20:35:09.878Z,13.10
2023-04-14T20:37:43.528Z,13.20
2023-04-14T20:40:14.219Z,13.20
2023-04-14T20:42:41.679Z,13.10
2023-04-14T20:45:23.388Z,13.10
2023-04-14T20:48:06.574Z,13.00
2023-04-14T20:50:39.322Z,13.00
2023-04-14T20:53:10.865Z,13.00
2023-04-14T21:01:43.014Z,12.90
2023-04-14T21:04:16.221Z,12.90
2023-04-14T21:09:54.134Z,12.60
2023-04-14T21:15:49.577Z,12.50
2023-04-14T21:17:59.388Z,12.50
2023-04-14T21:23:27.096Z,12.40
2023-04-14T21:26:00.078Z,12.40
2023-04-14T21:28:32.344Z,12.40
2023-04-14T21:31:05.034Z,12.40
2023-04-14T21:36:41.375Z,12.50
2023-04-14T21:39:11.420Z,12.20
2023-04-14T21:41:56.110Z,12.10
2023-04-14T21:55:58.855Z,11.70
2023-04-14T22:08:31.319Z,11.60
2023-04-14T22:11:36.156Z,11.40
2023-04-14T22:18:26.225Z,11.40
2023-04-14T22:20:58.217Z,11.30
2023-04-14T22:23:33.178Z,11.20
2023-04-14T22:38:51.302Z,10.80
2023-04-14T22:45:10.010Z,10.80
2023-04-14T22:54:28.379Z,10.80
2023-04-14T22:57:02.558Z,10.80
2023-04-14T22:59:57.992Z,10.80
2023-04-14T23:05:18.231Z,10.90
2023-04-14T23:07:59.975Z,11.10
2023-04-14T23:20:43.249Z,11.20
2023-04-14T23:23:17.236Z,11.10
2023-04-14T23:25:46.831Z,11.30
2023-04-14T23:28:17.274Z,11.20
2023-04-14T23:30:45.780Z,11.10
2023-04-14T23:33:17.600Z,11.00
2023-04-14T23:35:54.217Z,11.10
2023-04-14T23:38:21.460Z,11.20
2023-04-14T23:40:52.653Z,11.10
2023-04-14T23:43:22.097Z,11.10
2023-04-14T23:45:51.394Z,11.20
2023-04-14T23:48:22.873Z,11.20
2023-04-14T23:51:01.533Z,11.30
2023-04-14T23:53:40.177Z,11.40
2023-04-14T23:56:08.078Z,11.50
2023-04-14T23:58:37.332Z,11.60
